sensor_id;sensor_type;location;lat;lon;timestamp;P1;durP1;ratioP1;P2;durP2;ratioP2
56680;SDS011;42558;52.388;13.390;2023-03-25T00:01:25;7.79;;;3.99;;
56680;SDS011;42558;52.388;13.390;2023-03-25T00:04:02;9.88;;;3.23;;
56680;SDS011;42558;52.388;13.390;2023-03-25T00:06:35;9.12;;;3.61;;
56680;SDS011;42558;52.388;13.390;2023-03-25T00:09:04;10.26;;;3.80;;
56680;SDS011;42558;52.388;13.390;2023-03-25T00:11:34;7.98;;;3.61;;
56680;SDS011;42558;52.388;13.390;2023-03-25T00:14:04;7.41;;;3.61;;
56680;SDS011;42558;52.388;13.390;2023-03-25T00:16:34;7.22;;;3.61;;
56680;SDS011;42558;52.388;13.390;2023-03-25T00:19:05;10.83;;;3.23;;
56680;SDS011;42558;52.388;13.390;2023-03-25T00:21:35;9.69;;;3.80;;
56680;SDS011;42558;52.388;13.390;2023-03-25T00:24:05;9.50;;;3.99;;
56680;SDS011;42558;52.388;13.390;2023-03-25T00:26:35;8.93;;;3.23;;
56680;SDS011;42558;52.388;13.390;2023-03-25T00:29:11;7.98;;;3.42;;
56680;SDS011;42558;52.388;13.390;2023-03-25T00:31:42;8.93;;;3.23;;
56680;SDS011;42558;52.388;13.390;2023-03-25T00:34:12;8.55;;;3.42;;
56680;SDS011;42558;52.388;13.390;2023-03-25T00:36:44;8.55;;;3.04;;
56680;SDS011;42558;52.388;13.390;2023-03-25T00:39:14;7.98;;;3.23;;
56680;SDS011;42558;52.388;13.390;2023-03-25T00:41:44;8.36;;;2.47;;
56680;SDS011;42558;52.388;13.390;2023-03-25T00:44:14;9.12;;;3.61;;
56680;SDS011;42558;52.388;13.390;2023-03-25T00:46:45;6.65;;;3.04;;
56680;SDS011;42558;52.388;13.390;2023-03-25T00:49:15;7.79;;;3.04;;
56680;SDS011;42558;52.388;13.390;2023-03-25T00:51:45;8.36;;;3.61;;
56680;SDS011;42558;52.388;13.390;2023-03-25T00:54:22;8.55;;;2.66;;
56680;SDS011;42558;52.388;13.390;2023-03-25T00:56:52;6.46;;;2.47;;
56680;SDS011;42558;52.388;13.390;2023-03-25T00:59:22;7.60;;;3.61;;
56680;SDS011;42558;52.388;13.390;2023-03-25T01:01:51;9.88;;;2.66;;
56680;SDS011;42558;52.388;13.390;2023-03-25T01:04:19;10.07;;;3.23;;
56680;SDS011;42558;52.388;13.390;2023-03-25T01:06:48;8.93;;;3.42;;
56680;SDS011;42558;52.388;13.390;2023-03-25T01:09:20;9.69;;;2.85;;
56680;SDS011;42558;52.388;13.390;2023-03-25T01:11:48;10.64;;;3.04;;
56680;SDS011;42558;52.388;13.390;2023-03-25T01:14:19;10.26;;;3.04;;
56680;SDS011;42558;52.388;13.390;2023-03-25T01:16:53;7.22;;;2.66;;
56680;SDS011;42558;52.388;13.390;2023-03-25T01:19:24;7.03;;;2.66;;
56680;SDS011;42558;52.388;13.390;2023-03-25T01:21:53;7.79;;;3.04;;
56680;SDS011;42558;52.388;13.390;2023-03-25T01:24:24;9.31;;;3.23;;
56680;SDS011;42558;52.388;13.390;2023-03-25T01:26:54;9.12;;;3.23;;
56680;SDS011;42558;52.388;13.390;2023-03-25T01:29:24;6.65;;;2.85;;
56680;SDS011;42558;52.388;13.390;2023-03-25T01:31:54;12.35;;;3.04;;
56680;SDS011;42558;52.388;13.390;2023-03-25T01:34:25;12.54;;;3.04;;
56680;SDS011;42558;52.388;13.390;2023-03-25T01:36:54;8.55;;;3.04;;
56680;SDS011;42558;52.388;13.390;2023-03-25T01:39:24;7.98;;;3.04;;
56680;SDS011;42558;52.388;13.390;2023-03-25T01:41:54;8.93;;;3.23;;
56680;SDS011;42558;52.388;13.390;2023-03-25T01:46:59;7.79;;;2.85;;
56680;SDS011;42558;52.388;13.390;2023-03-25T01:49:34;11.40;;;3.23;;
56680;SDS011;42558;52.388;13.390;2023-03-25T01:52:11;10.64;;;3.42;;
56680;SDS011;42558;52.388;13.390;2023-03-25T01:54:49;9.50;;;3.23;;
56680;SDS011;42558;52.388;13.390;2023-03-25T01:57:23;12.16;;;3.23;;
56680;SDS011;42558;52.388;13.390;2023-03-25T01:59:52;8.55;;;2.66;;
56680;SDS011;42558;52.388;13.390;2023-03-25T02:02:23;8.93;;;3.23;;
56680;SDS011;42558;52.388;13.390;2023-03-25T02:05:11;10.07;;;3.04;;
56680;SDS011;42558;52.388;13.390;2023-03-25T02:07:53;10.26;;;2.66;;
56680;SDS011;42558;52.388;13.390;2023-03-25T02:10:26;7.22;;;2.47;;
56680;SDS011;42558;52.388;13.390;2023-03-25T02:12:56;7.60;;;2.47;;
56680;SDS011;42558;52.388;13.390;2023-03-25T02:15:35;8.93;;;3.42;;
56680;SDS011;42558;52.388;13.390;2023-03-25T02:21:05;9.12;;;3.04;;
56680;SDS011;42558;52.388;13.390;2023-03-25T02:26:40;7.22;;;3.23;;
56680;SDS011;42558;52.388;13.390;2023-03-25T02:44:59;8.74;;;4.18;;
56680;SDS011;42558;52.388;13.390;2023-03-25T02:47:41;8.17;;;3.99;;
56680;SDS011;42558;52.388;13.390;2023-03-25T02:50:39;11.59;;;3.42;;
56680;SDS011;42558;52.388;13.390;2023-03-25T02:53:20;9.31;;;3.99;;
56680;SDS011;42558;52.388;13.390;2023-03-25T02:56:00;8.17;;;3.99;;
56680;SDS011;42558;52.388;13.390;2023-03-25T02:58:39;10.64;;;4.56;;
56680;SDS011;42558;52.388;13.390;2023-03-25T03:01:10;9.31;;;4.94;;
56680;SDS011;42558;52.388;13.390;2023-03-25T03:03:43;8.36;;;4.18;;
56680;SDS011;42558;52.388;13.390;2023-03-25T03:06:16;11.78;;;4.18;;
56680;SDS011;42558;52.388;13.390;2023-03-25T03:23:13;10.07;;;4.18;;
56680;SDS011;42558;52.388;13.390;2023-03-25T03:26:05;8.74;;;4.94;;
56680;SDS011;42558;52.388;13.390;2023-03-25T03:28:49;11.40;;;4.75;;
56680;SDS011;42558;52.388;13.390;2023-03-25T03:31:39;10.64;;;4.37;;
56680;SDS011;42558;52.388;13.390;2023-03-25T03:34:44;12.35;;;3.99;;
56680;SDS011;42558;52.388;13.390;2023-03-25T03:37:30;10.64;;;4.18;;
56680;SDS011;42558;52.388;13.390;2023-03-25T03:40:07;9.31;;;3.80;;
56680;SDS011;42558;52.388;13.390;2023-03-25T03:45:36;8.55;;;3.42;;
56680;SDS011;42558;52.388;13.390;2023-03-25T03:48:24;7.79;;;3.80;;
56680;SDS011;42558;52.388;13.390;2023-03-25T03:51:07;8.93;;;3.61;;
56680;SDS011;42558;52.388;13.390;2023-03-25T03:53:45;8.93;;;3.61;;
56680;SDS011;42558;52.388;13.390;2023-03-25T03:56:31;6.84;;;3.04;;
56680;SDS011;42558;52.388;13.390;2023-03-25T03:59:36;8.74;;;3.04;;
56680;SDS011;42558;52.388;13.390;2023-03-25T04:05:01;7.60;;;2.66;;
56680;SDS011;42558;52.388;13.390;2023-03-25T04:07:39;7.41;;;2.66;;
56680;SDS011;42558;52.388;13.390;2023-03-25T04:10:17;11.59;;;3.04;;
56680;SDS011;42558;52.388;13.390;2023-03-25T04:12:59;8.36;;;2.66;;
56680;SDS011;42558;52.388;13.390;2023-03-25T04:15:32;7.41;;;2.66;;
56680;SDS011;42558;52.388;13.390;2023-03-25T04:18:02;10.26;;;2.85;;
56680;SDS011;42558;52.388;13.390;2023-03-25T04:20:33;6.84;;;2.66;;
56680;SDS011;42558;52.388;13.390;2023-03-25T04:23:05;7.98;;;3.23;;
56680;SDS011;42558;52.388;13.390;2023-03-25T04:25:38;8.36;;;3.61;;
56680;SDS011;42558;52.388;13.390;2023-03-25T04:28:09;11.21;;;3.23;;
56680;SDS011;42558;52.388;13.390;2023-03-25T04:30:42;8.93;;;3.04;;
56680;SDS011;42558;52.388;13.390;2023-03-25T04:33:13;7.79;;;2.85;;
56680;SDS011;42558;52.388;13.390;2023-03-25T04:35:43;9.12;;;2.66;;
56680;SDS011;42558;52.388;13.390;2023-03-25T04:38:13;7.79;;;2.85;;
56680;SDS011;42558;52.388;13.390;2023-03-25T04:40:46;9.12;;;2.85;;
56680;SDS011;42558;52.388;13.390;2023-03-25T04:43:16;7.41;;;2.85;;
56680;SDS011;42558;52.388;13.390;2023-03-25T04:45:46;12.92;;;3.80;;
56680;SDS011;42558;52.388;13.390;2023-03-25T04:48:27;9.69;;;3.42;;
56680;SDS011;42558;52.388;13.390;2023-03-25T04:50:59;10.26;;;3.61;;
56680;SDS011;42558;52.388;13.390;2023-03-25T04:53:31;7.22;;;2.66;;
56680;SDS011;42558;52.388;13.390;2023-03-25T04:56:01;7.98;;;2.85;;
56680;SDS011;42558;52.388;13.390;2023-03-25T04:58:32;9.69;;;3.23;;
56680;SDS011;42558;52.388;13.390;2023-03-25T05:01:02;10.83;;;3.61;;
56680;SDS011;42558;52.388;13.390;2023-03-25T05:03:34;11.02;;;3.23;;
56680;SDS011;42558;52.388;13.390;2023-03-25T05:06:08;8.36;;;3.04;;
56680;SDS011;42558;52.388;13.390;2023-03-25T05:08:39;7.60;;;3.04;;
56680;SDS011;42558;52.388;13.390;2023-03-25T05:11:10;7.41;;;3.04;;
56680;SDS011;42558;52.388;13.390;2023-03-25T05:13:39;7.60;;;2.66;;
56680;SDS011;42558;52.388;13.390;2023-03-25T05:16:09;14.06;;;2.85;;
56680;SDS011;42558;52.388;13.390;2023-03-25T05:18:39;12.54;;;2.28;;
56680;SDS011;42558;52.388;13.390;2023-03-25T05:21:09;8.74;;;2.47;;
56680;SDS011;42558;52.388;13.390;2023-03-25T05:23:40;7.79;;;1.90;;
56680;SDS011;42558;52.388;13.390;2023-03-25T05:26:10;7.79;;;2.47;;
56680;SDS011;42558;52.388;13.390;2023-03-25T05:28:43;7.22;;;2.66;;
56680;SDS011;42558;52.388;13.390;2023-03-25T05:31:11;6.65;;;2.09;;
56680;SDS011;42558;52.388;13.390;2023-03-25T05:33:39;7.41;;;2.28;;
56680;SDS011;42558;52.388;13.390;2023-03-25T05:36:12;7.79;;;2.47;;
56680;SDS011;42558;52.388;13.390;2023-03-25T05:38:45;7.98;;;2.47;;
56680;SDS011;42558;52.388;13.390;2023-03-25T05:41:16;6.08;;;2.09;;
56680;SDS011;42558;52.388;13.390;2023-03-25T05:43:46;7.03;;;2.09;;
56680;SDS011;42558;52.388;13.390;2023-03-25T05:46:17;8.74;;;2.09;;
56680;SDS011;42558;52.388;13.390;2023-03-25T05:48:47;8.17;;;1.90;;
56680;SDS011;42558;52.388;13.390;2023-03-25T05:51:17;7.79;;;1.71;;
56680;SDS011;42558;52.388;13.390;2023-03-25T05:53:54;7.79;;;2.09;;
56680;SDS011;42558;52.388;13.390;2023-03-25T05:56:24;4.94;;;1.52;;
56680;SDS011;42558;52.388;13.390;2023-03-25T05:58:54;5.89;;;1.33;;
56680;SDS011;42558;52.388;13.390;2023-03-25T06:01:25;4.94;;;1.71;;
56680;SDS011;42558;52.388;13.390;2023-03-25T06:04:03;7.41;;;1.71;;
56680;SDS011;42558;52.388;13.390;2023-03-25T06:06:33;7.79;;;1.90;;
56680;SDS011;42558;52.388;13.390;2023-03-25T06:09:05;6.65;;;1.90;;
56680;SDS011;42558;52.388;13.390;2023-03-25T06:11:32;8.93;;;1.71;;
56680;SDS011;42558;52.388;13.390;2023-03-25T06:14:07;10.07;;;1.71;;
56680;SDS011;42558;52.388;13.390;2023-03-25T06:16:37;7.60;;;1.71;;
56680;SDS011;42558;52.388;13.390;2023-03-25T06:19:08;6.84;;;1.52;;
56680;SDS011;42558;52.388;13.390;2023-03-25T06:21:38;5.89;;;1.90;;
56680;SDS011;42558;52.388;13.390;2023-03-25T06:24:07;6.84;;;1.71;;
56680;SDS011;42558;52.388;13.390;2023-03-25T06:26:37;6.84;;;1.90;;
56680;SDS011;42558;52.388;13.390;2023-03-25T06:29:07;7.41;;;1.90;;
56680;SDS011;42558;52.388;13.390;2023-03-25T06:31:37;5.51;;;1.33;;
56680;SDS011;42558;52.388;13.390;2023-03-25T06:34:07;7.60;;;1.52;;
56680;SDS011;42558;52.388;13.390;2023-03-25T06:36:37;4.75;;;1.52;;
56680;SDS011;42558;52.388;13.390;2023-03-25T06:39:07;7.03;;;1.71;;
56680;SDS011;42558;52.388;13.390;2023-03-25T06:41:37;5.51;;;1.33;;
56680;SDS011;42558;52.388;13.390;2023-03-25T06:44:07;7.41;;;1.52;;
56680;SDS011;42558;52.388;13.390;2023-03-25T06:46:36;9.31;;;1.90;;
56680;SDS011;42558;52.388;13.390;2023-03-25T06:49:07;4.56;;;1.52;;
56680;SDS011;42558;52.388;13.390;2023-03-25T06:51:37;5.32;;;1.90;;
56680;SDS011;42558;52.388;13.390;2023-03-25T06:54:07;5.13;;;1.52;;
56680;SDS011;42558;52.388;13.390;2023-03-25T06:56:37;7.03;;;1.71;;
56680;SDS011;42558;52.388;13.390;2023-03-25T06:59:07;9.50;;;1.33;;
56680;SDS011;42558;52.388;13.390;2023-03-25T07:01:37;7.22;;;1.71;;
56680;SDS011;42558;52.388;13.390;2023-03-25T07:04:07;5.51;;;1.71;;
56680;SDS011;42558;52.388;13.390;2023-03-25T07:06:37;4.75;;;1.71;;
56680;SDS011;42558;52.388;13.390;2023-03-25T07:09:07;5.32;;;1.52;;
56680;SDS011;42558;52.388;13.390;2023-03-25T07:11:37;5.13;;;1.52;;
56680;SDS011;42558;52.388;13.390;2023-03-25T07:14:07;6.65;;;1.33;;
56680;SDS011;42558;52.388;13.390;2023-03-25T07:16:37;5.13;;;1.33;;
56680;SDS011;42558;52.388;13.390;2023-03-25T07:19:07;4.56;;;1.33;;
56680;SDS011;42558;52.388;13.390;2023-03-25T07:21:37;5.89;;;1.52;;
56680;SDS011;42558;52.388;13.390;2023-03-25T07:24:06;4.75;;;1.33;;
56680;SDS011;42558;52.388;13.390;2023-03-25T07:26:36;6.27;;;1.52;;
56680;SDS011;42558;52.388;13.390;2023-03-25T07:29:06;4.94;;;1.33;;
56680;SDS011;42558;52.388;13.390;2023-03-25T07:31:36;4.56;;;1.14;;
56680;SDS011;42558;52.388;13.390;2023-03-25T07:34:08;5.89;;;1.71;;
56680;SDS011;42558;52.388;13.390;2023-03-25T07:36:37;7.22;;;1.71;;
56680;SDS011;42558;52.388;13.390;2023-03-25T07:39:07;5.89;;;1.71;;
56680;SDS011;42558;52.388;13.390;2023-03-25T07:41:37;6.46;;;1.33;;
56680;SDS011;42558;52.388;13.390;2023-03-25T07:44:07;4.94;;;1.33;;
56680;SDS011;42558;52.388;13.390;2023-03-25T07:46:37;7.03;;;1.71;;
56680;SDS011;42558;52.388;13.390;2023-03-25T07:49:07;7.03;;;2.09;;
56680;SDS011;42558;52.388;13.390;2023-03-25T07:51:37;6.27;;;1.71;;
56680;SDS011;42558;52.388;13.390;2023-03-25T07:54:07;5.32;;;1.33;;
56680;SDS011;42558;52.388;13.390;2023-03-25T07:56:38;4.94;;;1.33;;
56680;SDS011;42558;52.388;13.390;2023-03-25T07:59:08;10.07;;;2.09;;
56680;SDS011;42558;52.388;13.390;2023-03-25T08:01:38;7.41;;;1.52;;
56680;SDS011;42558;52.388;13.390;2023-03-25T08:04:08;12.35;;;2.85;;
56680;SDS011;42558;52.388;13.390;2023-03-25T08:06:38;10.26;;;1.90;;
56680;SDS011;42558;52.388;13.390;2023-03-25T08:09:08;7.22;;;1.90;;
56680;SDS011;42558;52.388;13.390;2023-03-25T08:11:38;6.84;;;2.09;;
56680;SDS011;42558;52.388;13.390;2023-03-25T08:14:08;6.27;;;1.52;;
56680;SDS011;42558;52.388;13.390;2023-03-25T08:16:38;6.27;;;1.52;;
56680;SDS011;42558;52.388;13.390;2023-03-25T08:19:09;6.27;;;1.52;;
56680;SDS011;42558;52.388;13.390;2023-03-25T08:21:39;5.13;;;1.52;;
56680;SDS011;42558;52.388;13.390;2023-03-25T08:24:09;6.46;;;1.71;;
56680;SDS011;42558;52.388;13.390;2023-03-25T08:26:39;6.65;;;1.14;;
56680;SDS011;42558;52.388;13.390;2023-03-25T08:29:08;5.32;;;1.52;;
56680;SDS011;42558;52.388;13.390;2023-03-25T08:31:36;8.74;;;1.52;;
56680;SDS011;42558;52.388;13.390;2023-03-25T08:34:05;5.70;;;1.52;;
56680;SDS011;42558;52.388;13.390;2023-03-25T08:36:33;6.84;;;1.90;;
56680;SDS011;42558;52.388;13.390;2023-03-25T08:39:08;5.89;;;2.28;;
56680;SDS011;42558;52.388;13.390;2023-03-25T08:41:40;7.03;;;1.52;;
56680;SDS011;42558;52.388;13.390;2023-03-25T08:44:10;6.46;;;2.09;;
56680;SDS011;42558;52.388;13.390;2023-03-25T08:46:41;5.70;;;1.52;;
56680;SDS011;42558;52.388;13.390;2023-03-25T08:49:11;5.70;;;1.90;;
56680;SDS011;42558;52.388;13.390;2023-03-25T08:51:41;4.94;;;1.14;;
56680;SDS011;42558;52.388;13.390;2023-03-25T08:54:10;6.08;;;1.52;;
56680;SDS011;42558;52.388;13.390;2023-03-25T08:56:40;6.08;;;1.71;;
56680;SDS011;42558;52.388;13.390;2023-03-25T08:59:10;4.56;;;1.33;;
56680;SDS011;42558;52.388;13.390;2023-03-25T09:01:41;5.32;;;1.71;;
56680;SDS011;42558;52.388;13.390;2023-03-25T09:04:12;5.51;;;1.52;;
56680;SDS011;42558;52.388;13.390;2023-03-25T09:06:43;6.65;;;1.71;;
56680;SDS011;42558;52.388;13.390;2023-03-25T09:09:32;4.56;;;1.52;;
56680;SDS011;42558;52.388;13.390;2023-03-25T09:11:59;7.03;;;1.71;;
56680;SDS011;42558;52.388;13.390;2023-03-25T09:14:28;5.32;;;1.52;;
56680;SDS011;42558;52.388;13.390;2023-03-25T09:16:56;7.22;;;1.33;;
56680;SDS011;42558;52.388;13.390;2023-03-25T09:19:25;5.13;;;1.52;;
56680;SDS011;42558;52.388;13.390;2023-03-25T09:21:53;8.93;;;2.09;;
56680;SDS011;42558;52.388;13.390;2023-03-25T09:24:22;6.08;;;1.71;;
56680;SDS011;42558;52.388;13.390;2023-03-25T09:26:50;6.84;;;1.90;;
56680;SDS011;42558;52.388;13.390;2023-03-25T09:29:19;5.32;;;1.52;;
56680;SDS011;42558;52.388;13.390;2023-03-25T09:31:47;4.75;;;1.33;;
56680;SDS011;42558;52.388;13.390;2023-03-25T09:34:15;5.51;;;1.52;;
56680;SDS011;42558;52.388;13.390;2023-03-25T09:36:44;4.94;;;1.52;;
56680;SDS011;42558;52.388;13.390;2023-03-25T09:39:15;7.22;;;1.90;;
56680;SDS011;42558;52.388;13.390;2023-03-25T09:47:57;5.51;;;1.52;;
56680;SDS011;42558;52.388;13.390;2023-03-25T09:50:34;6.46;;;1.52;;
56680;SDS011;42558;52.388;13.390;2023-03-25T09:53:29;4.94;;;1.33;;
56680;SDS011;42558;52.388;13.390;2023-03-25T09:56:11;4.37;;;1.33;;
56680;SDS011;42558;52.388;13.390;2023-03-25T09:58:47;6.08;;;2.09;;
56680;SDS011;42558;52.388;13.390;2023-03-25T10:01:22;6.27;;;1.52;;
56680;SDS011;42558;52.388;13.390;2023-03-25T10:10:02;5.13;;;1.33;;
56680;SDS011;42558;52.388;13.390;2023-03-25T10:22:08;10.07;;;1.71;;
56680;SDS011;42558;52.388;13.390;2023-03-25T10:24:35;6.84;;;1.14;;
56680;SDS011;42558;52.388;13.390;2023-03-25T10:27:18;4.94;;;1.33;;
56680;SDS011;42558;52.388;13.390;2023-03-25T10:32:40;5.13;;;1.33;;
56680;SDS011;42558;52.388;13.390;2023-03-25T10:35:39;6.65;;;1.90;;
56680;SDS011;42558;52.388;13.390;2023-03-25T10:38:19;5.32;;;1.52;;
56680;SDS011;42558;52.388;13.390;2023-03-25T10:43:59;7.41;;;1.52;;
56680;SDS011;42558;52.388;13.390;2023-03-25T10:46:45;4.18;;;1.14;;
56680;SDS011;42558;52.388;13.390;2023-03-25T10:49:26;7.60;;;2.28;;
56680;SDS011;42558;52.388;13.390;2023-03-25T10:52:00;7.03;;;1.90;;
56680;SDS011;42558;52.388;13.390;2023-03-25T10:54:35;5.13;;;1.52;;
56680;SDS011;42558;52.388;13.390;2023-03-25T10:57:18;5.70;;;1.71;;
56680;SDS011;42558;52.388;13.390;2023-03-25T11:00:13;4.94;;;1.71;;
56680;SDS011;42558;52.388;13.390;2023-03-25T11:02:46;5.70;;;1.71;;
56680;SDS011;42558;52.388;13.390;2023-03-25T11:05:19;4.56;;;1.71;;
56680;SDS011;42558;52.388;13.390;2023-03-25T11:07:59;5.13;;;1.52;;
56680;SDS011;42558;52.388;13.390;2023-03-25T11:10:46;4.75;;;1.33;;
56680;SDS011;42558;52.388;13.390;2023-03-25T11:13:23;4.75;;;1.33;;
56680;SDS011;42558;52.388;13.390;2023-03-25T11:16:01;5.32;;;1.71;;
56680;SDS011;42558;52.388;13.390;2023-03-25T11:18:36;4.75;;;1.14;;
56680;SDS011;42558;52.388;13.390;2023-03-25T11:21:13;4.56;;;1.52;;
56680;SDS011;42558;52.388;13.390;2023-03-25T11:23:45;5.32;;;1.33;;
56680;SDS011;42558;52.388;13.390;2023-03-25T11:26:39;5.13;;;1.52;;
56680;SDS011;42558;52.388;13.390;2023-03-25T11:29:18;6.08;;;1.52;;
56680;SDS011;42558;52.388;13.390;2023-03-25T11:32:07;4.75;;;1.33;;
56680;SDS011;42558;52.388;13.390;2023-03-25T11:34:46;5.89;;;1.33;;
56680;SDS011;42558;52.388;13.390;2023-03-25T11:37:21;4.94;;;1.90;;
56680;SDS011;42558;52.388;13.390;2023-03-25T11:39:54;4.56;;;1.33;;
56680;SDS011;42558;52.388;13.390;2023-03-25T11:42:34;5.13;;;1.52;;
56680;SDS011;42558;52.388;13.390;2023-03-25T11:45:18;5.13;;;1.33;;
56680;SDS011;42558;52.388;13.390;2023-03-25T11:47:50;5.89;;;1.33;;
56680;SDS011;42558;52.388;13.390;2023-03-25T11:50:26;6.27;;;1.71;;
56680;SDS011;42558;52.388;13.390;2023-03-25T11:53:00;5.13;;;1.90;;
56680;SDS011;42558;52.388;13.390;2023-03-25T11:55:46;6.08;;;2.09;;
56680;SDS011;42558;52.388;13.390;2023-03-25T11:58:25;4.94;;;1.33;;
56680;SDS011;42558;52.388;13.390;2023-03-25T12:01:03;6.08;;;1.71;;
56680;SDS011;42558;52.388;13.390;2023-03-25T12:03:35;7.60;;;1.90;;
56680;SDS011;42558;52.388;13.390;2023-03-25T12:19:51;4.75;;;1.33;;
56680;SDS011;42558;52.388;13.390;2023-03-25T12:23:15;4.37;;;1.14;;
56680;SDS011;42558;52.388;13.390;2023-03-25T12:25:41;5.13;;;1.33;;
56680;SDS011;42558;52.388;13.390;2023-03-25T12:35:10;3.99;;;1.33;;
56680;SDS011;42558;52.388;13.390;2023-03-25T12:38:19;5.32;;;1.52;;
56680;SDS011;42558;52.388;13.390;2023-03-25T12:41:07;5.32;;;1.33;;
56680;SDS011;42558;52.388;13.390;2023-03-25T12:47:38;4.94;;;1.52;;
56680;SDS011;42558;52.388;13.390;2023-03-25T13:07:49;6.27;;;1.33;;
56680;SDS011;42558;52.388;13.390;2023-03-25T13:10:28;4.37;;;1.33;;
56680;SDS011;42558;52.388;13.390;2023-03-25T13:13:08;4.18;;;1.14;;
56680;SDS011;42558;52.388;13.390;2023-03-25T13:15:48;4.37;;;1.33;;
56680;SDS011;42558;52.388;13.390;2023-03-25T13:18:32;4.18;;;1.14;;
56680;SDS011;42558;52.388;13.390;2023-03-25T13:21:10;7.03;;;1.52;;
56680;SDS011;42558;52.388;13.390;2023-03-25T13:23:57;5.13;;;1.33;;
56680;SDS011;42558;52.388;13.390;2023-03-25T13:26:34;4.37;;;1.14;;
56680;SDS011;42558;52.388;13.390;2023-03-25T13:29:25;4.75;;;1.33;;
56680;SDS011;42558;52.388;13.390;2023-03-25T13:32:17;4.75;;;1.33;;
56680;SDS011;42558;52.388;13.390;2023-03-25T13:34:56;4.75;;;1.14;;
56680;SDS011;42558;52.388;13.390;2023-03-25T13:37:40;4.94;;;1.52;;
56680;SDS011;42558;52.388;13.390;2023-03-25T13:46:07;6.46;;;1.33;;
56680;SDS011;42558;52.388;13.390;2023-03-25T13:49:00;4.94;;;1.33;;
56680;SDS011;42558;52.388;13.390;2023-03-25T13:51:36;6.46;;;1.33;;
56680;SDS011;42558;52.388;13.390;2023-03-25T13:54:35;5.32;;;1.14;;
56680;SDS011;42558;52.388;13.390;2023-03-25T14:06:42;5.13;;;1.33;;
56680;SDS011;42558;52.388;13.390;2023-03-25T14:12:45;4.18;;;0.95;;
56680;SDS011;42558;52.388;13.390;2023-03-25T14:15:28;3.42;;;0.95;;
56680;SDS011;42558;52.388;13.390;2023-03-25T14:18:02;4.56;;;1.14;;
56680;SDS011;42558;52.388;13.390;2023-03-25T14:20:36;4.75;;;1.33;;
56680;SDS011;42558;52.388;13.390;2023-03-25T14:23:16;6.27;;;0.95;;
56680;SDS011;42558;52.388;13.390;2023-03-25T14:25:55;5.13;;;1.33;;
56680;SDS011;42558;52.388;13.390;2023-03-25T14:28:35;4.56;;;1.33;;
56680;SDS011;42558;52.388;13.390;2023-03-25T14:34:11;3.80;;;1.14;;
56680;SDS011;42558;52.388;13.390;2023-03-25T14:44:46;5.70;;;1.52;;
56680;SDS011;42558;52.388;13.390;2023-03-25T14:47:28;3.61;;;0.95;;
56680;SDS011;42558;52.388;13.390;2023-03-25T14:50:28;3.99;;;1.14;;
56680;SDS011;42558;52.388;13.390;2023-03-25T14:53:00;5.13;;;1.52;;
56680;SDS011;42558;52.388;13.390;2023-03-25T14:55:40;6.65;;;1.14;;
56680;SDS011;42558;52.388;13.390;2023-03-25T14:58:25;6.08;;;1.33;;
56680;SDS011;42558;52.388;13.390;2023-03-25T15:01:10;4.75;;;1.33;;
56680;SDS011;42558;52.388;13.390;2023-03-25T15:03:46;4.18;;;0.95;;
56680;SDS011;42558;52.388;13.390;2023-03-25T15:06:17;4.56;;;1.14;;
56680;SDS011;42558;52.388;13.390;2023-03-25T15:09:02;6.08;;;1.14;;
56680;SDS011;42558;52.388;13.390;2023-03-25T15:11:43;4.37;;;1.14;;
56680;SDS011;42558;52.388;13.390;2023-03-25T15:14:26;4.18;;;1.14;;
56680;SDS011;42558;52.388;13.390;2023-03-25T15:17:42;10.26;;;1.52;;
56680;SDS011;42558;52.388;13.390;2023-03-25T15:25:50;3.99;;;1.14;;
56680;SDS011;42558;52.388;13.390;2023-03-25T15:49:01;6.27;;;1.52;;
56680;SDS011;42558;52.388;13.390;2023-03-25T15:56:47;4.94;;;1.52;;
56680;SDS011;42558;52.388;13.390;2023-03-25T15:59:41;6.65;;;1.52;;
56680;SDS011;42558;52.388;13.390;2023-03-25T16:02:20;8.36;;;1.90;;
56680;SDS011;42558;52.388;13.390;2023-03-25T16:04:55;6.27;;;1.71;;
56680;SDS011;42558;52.388;13.390;2023-03-25T16:07:28;8.36;;;1.52;;
56680;SDS011;42558;52.388;13.390;2023-03-25T16:10:14;6.08;;;1.90;;
56680;SDS011;42558;52.388;13.390;2023-03-25T16:12:54;5.89;;;1.52;;
56680;SDS011;42558;52.388;13.390;2023-03-25T16:15:27;7.41;;;1.71;;
56680;SDS011;42558;52.388;13.390;2023-03-25T16:18:03;7.98;;;1.52;;
56680;SDS011;42558;52.388;13.390;2023-03-25T16:20:36;10.26;;;2.09;;
56680;SDS011;42558;52.388;13.390;2023-03-25T16:23:07;6.08;;;1.52;;
56680;SDS011;42558;52.388;13.390;2023-03-25T16:25:48;6.84;;;1.52;;
56680;SDS011;42558;52.388;13.390;2023-03-25T16:28:38;5.13;;;1.90;;
56680;SDS011;42558;52.388;13.390;2023-03-25T16:31:32;5.70;;;2.09;;
56680;SDS011;42558;52.388;13.390;2023-03-25T16:34:13;6.46;;;1.90;;
56680;SDS011;42558;52.388;13.390;2023-03-25T16:36:46;6.65;;;1.90;;
56680;SDS011;42558;52.388;13.390;2023-03-25T16:39:20;7.41;;;2.09;;
56680;SDS011;42558;52.388;13.390;2023-03-25T16:42:03;5.89;;;1.90;;
56680;SDS011;42558;52.388;13.390;2023-03-25T16:44:46;10.26;;;2.28;;
56680;SDS011;42558;52.388;13.390;2023-03-25T16:47:17;9.88;;;2.28;;
56680;SDS011;42558;52.388;13.390;2023-03-25T16:49:51;7.41;;;2.09;;
56680;SDS011;42558;52.388;13.390;2023-03-25T16:52:26;8.36;;;2.28;;
56680;SDS011;42558;52.388;13.390;2023-03-25T16:55:09;7.03;;;1.90;;
56680;SDS011;42558;52.388;13.390;2023-03-25T16:57:44;8.17;;;2.09;;
56680;SDS011;42558;52.388;13.390;2023-03-25T17:00:17;7.03;;;2.28;;
56680;SDS011;42558;52.388;13.390;2023-03-25T17:02:50;8.17;;;2.28;;
56680;SDS011;42558;52.388;13.390;2023-03-25T17:05:24;10.45;;;2.66;;
56680;SDS011;42558;52.388;13.390;2023-03-25T17:07:57;9.69;;;2.47;;
56680;SDS011;42558;52.388;13.390;2023-03-25T17:10:44;7.41;;;2.28;;
56680;SDS011;42558;52.388;13.390;2023-03-25T17:13:38;7.79;;;2.28;;
56680;SDS011;42558;52.388;13.390;2023-03-25T17:16:12;6.84;;;2.09;;
56680;SDS011;42558;52.388;13.390;2023-03-25T17:18:41;6.46;;;2.09;;
56680;SDS011;42558;52.388;13.390;2023-03-25T17:21:22;7.22;;;1.71;;
56680;SDS011;42558;52.388;13.390;2023-03-25T17:24:00;6.27;;;2.09;;
56680;SDS011;42558;52.388;13.390;2023-03-25T17:26:53;8.17;;;2.09;;
56680;SDS011;42558;52.388;13.390;2023-03-25T17:29:32;5.89;;;1.90;;
56680;SDS011;42558;52.388;13.390;2023-03-25T17:32:02;7.41;;;2.47;;
56680;SDS011;42558;52.388;13.390;2023-03-25T17:34:32;5.89;;;1.52;;
56680;SDS011;42558;52.388;13.390;2023-03-25T17:37:11;6.46;;;2.09;;
56680;SDS011;42558;52.388;13.390;2023-03-25T17:39:46;7.60;;;2.28;;
56680;SDS011;42558;52.388;13.390;2023-03-25T17:42:22;7.22;;;2.28;;
56680;SDS011;42558;52.388;13.390;2023-03-25T17:44:55;6.65;;;2.09;;
56680;SDS011;42558;52.388;13.390;2023-03-25T17:47:25;7.41;;;2.66;;
56680;SDS011;42558;52.388;13.390;2023-03-25T17:49:55;8.17;;;3.23;;
56680;SDS011;42558;52.388;13.390;2023-03-25T17:52:25;8.55;;;2.47;;
56680;SDS011;42558;52.388;13.390;2023-03-25T17:54:59;7.98;;;2.28;;
56680;SDS011;42558;52.388;13.390;2023-03-25T17:57:29;6.08;;;2.09;;
56680;SDS011;42558;52.388;13.390;2023-03-25T17:59:58;7.79;;;3.04;;
56680;SDS011;42558;52.388;13.390;2023-03-25T18:02:26;10.83;;;4.37;;
56680;SDS011;42558;52.388;13.390;2023-03-25T18:04:55;10.83;;;3.99;;
56680;SDS011;42558;52.388;13.390;2023-03-25T18:07:23;8.17;;;3.42;;
56680;SDS011;42558;52.388;13.390;2023-03-25T18:09:51;8.36;;;3.42;;
56680;SDS011;42558;52.388;13.390;2023-03-25T18:12:20;8.55;;;3.80;;
56680;SDS011;42558;52.388;13.390;2023-03-25T18:14:48;17.86;;;8.93;;